Medalanes, New Mexico
Current Conditions -  °F | °C
As of 10:55 PM on Thursday 30 Oct 2014 (Local Time) from KLAM Reporting Station
Clear Clear  
Wind Chill: 50°   Ceiling: Unl
Heat Index: 50°   Visibility: 10mi
Dew Point: 20°   Wind: 7mph
Humidity: 31%   Direction: 210°SSW
Pressure: 30.45"   Gusts: NA
Location:  36.1769°N, 106.184°W
Report Text: KLAM 310455Z AUTO 21006KT 10SM CLR 10/M06 A3045 RMK AO2 T01001065
Loading
Personal Weather Stations






























Interactive Weather Map
Tropical Storm Tracking
New forecast layout! Learn more

10-Day Weather Forecast

Advertisements
Track Severe Weather on mobile